createdAt,value
2019-05-17T00:02:27.483Z,19.23
2019-05-17T00:04:56.984Z,16.93
2019-05-17T00:07:32.010Z,17.98
2019-05-17T00:10:09.150Z,21.15
2019-05-17T00:12:38.656Z,19.60
2019-05-17T00:15:09.056Z,21.65
2019-05-17T00:17:39.054Z,20.10
2019-05-17T00:20:12.045Z,21.62
2019-05-17T00:22:41.992Z,19.23
2019-05-17T00:25:12.887Z,19.73
2019-05-17T00:27:51.520Z,20.72
2019-05-17T00:30:26.615Z,20.15
2019-05-17T00:36:04.113Z,18.55
2019-05-17T00:38:48.359Z,19.90
2019-05-17T00:41:17.767Z,19.80
2019-05-17T00:43:47.646Z,18.65
2019-05-17T00:46:22.756Z,21.80
2019-05-17T00:49:11.196Z,19.12
2019-05-17T01:04:27.464Z,18.62
2019-05-17T01:07:33.246Z,20.62
2019-05-17T01:16:07.379Z,18.17
2019-05-17T01:21:27.984Z,17.45
2019-05-17T01:24:17.916Z,20.65
2019-05-17T01:26:50.481Z,17.30
2019-05-17T01:29:52.566Z,19.07
2019-05-17T01:32:31.382Z,17.62
2019-05-17T01:35:07.327Z,18.37
2019-05-17T01:37:41.488Z,16.67
2019-05-17T01:40:11.327Z,27.55
2019-05-17T01:42:40.627Z,18.05
2019-05-17T01:45:10.625Z,17.27
2019-05-17T01:47:41.244Z,17.35
2019-05-17T01:50:14.466Z,19.70
2019-05-17T01:52:46.123Z,18.95
2019-05-17T01:55:17.211Z,20.30
2019-05-17T01:58:07.480Z,18.92
2019-05-17T02:00:48.502Z,19.07
2019-05-17T02:09:08.904Z,20.52
2019-05-17T02:12:02.136Z,17.05
2019-05-17T02:14:37.464Z,17.17
2019-05-17T02:23:47.853Z,17.65
2019-05-17T02:26:17.510Z,15.75
2019-05-17T02:28:57.003Z,15.63
2019-05-17T02:31:27.842Z,17.42
2019-05-17T02:34:03.114Z,20.15
2019-05-17T02:36:33.908Z,19.60
2019-05-17T02:39:08.171Z,21.42
2019-05-17T02:41:42.775Z,16.27
2019-05-17T02:44:13.030Z,19.82
2019-05-17T02:46:44.365Z,18.05
2019-05-17T02:49:14.921Z,17.15
2019-05-17T02:54:43.683Z,16.35
2019-05-17T02:58:12.853Z,22.35
2019-05-17T03:00:52.910Z,15.48
2019-05-17T03:04:03.922Z,16.25
2019-05-17T03:06:46.046Z,17.20
2019-05-17T03:09:25.144Z,18.75
2019-05-17T03:11:58.786Z,15.48
2019-05-17T03:14:28.201Z,16.20
2019-05-17T03:16:57.570Z,16.05
2019-05-17T03:19:27.585Z,17.60
2019-05-17T03:21:56.986Z,15.72
2019-05-17T03:24:26.370Z,19.00
2019-05-17T03:26:55.685Z,16.80
2019-05-17T03:29:26.423Z,20.32
2019-05-17T03:32:00.274Z,16.37
2019-05-17T03:34:27.936Z,18.45
2019-05-17T03:36:57.297Z,24.65
2019-05-17T03:39:26.684Z,18.20
2019-05-17T03:41:56.331Z,19.55
2019-05-17T03:44:25.790Z,24.92
2019-05-17T03:46:57.680Z,21.07
2019-05-17T03:49:28.513Z,20.80
2019-05-17T03:51:58.126Z,19.73
2019-05-17T03:54:27.673Z,18.35
2019-05-17T03:56:57.453Z,19.70
2019-05-17T03:59:26.876Z,20.48
2019-05-17T04:01:57.089Z,20.10
2019-05-17T04:04:26.654Z,17.82
2019-05-17T04:06:56.379Z,22.40
2019-05-17T04:09:25.866Z,21.25
2019-05-17T04:11:55.243Z,20.92
2019-05-17T04:14:24.701Z,23.18
2019-05-17T04:16:54.438Z,21.57
2019-05-17T04:19:23.777Z,22.48
2019-05-17T04:21:53.815Z,22.62
2019-05-17T04:24:23.314Z,23.90
2019-05-17T04:26:53.709Z,21.57
2019-05-17T04:29:24.244Z,23.42
2019-05-17T04:31:55.995Z,23.67
2019-05-17T04:34:25.791Z,20.88
2019-05-17T04:36:58.243Z,21.95
2019-05-17T04:39:27.627Z,25.52
2019-05-17T04:41:57.068Z,21.05
2019-05-17T04:44:28.046Z,23.07
2019-05-17T05:00:14.889Z,19.48
2019-05-17T05:02:55.417Z,22.00
2019-05-17T05:05:27.135Z,24.07
2019-05-17T05:08:02.992Z,25.85
2019-05-17T05:11:08.031Z,22.07
2019-05-17T05:13:37.908Z,23.60
2019-05-17T05:16:13.250Z,27.27
2019-05-17T05:18:48.680Z,23.87
2019-05-17T05:26:02.953Z,23.90
2019-05-17T05:29:02.589Z,26.80
2019-05-17T05:43:42.054Z,30.15
2019-05-17T05:49:58.541Z,26.15
2019-05-17T05:59:42.510Z,22.00
2019-05-17T06:02:15.370Z,25.97
2019-05-17T06:05:07.536Z,22.02
2019-05-17T06:07:48.189Z,23.47
2019-05-17T06:10:24.934Z,23.22
2019-05-17T06:13:04.987Z,25.23
2019-05-17T06:15:46.984Z,22.87
2019-05-17T06:18:38.417Z,25.40
2019-05-17T15:49:05.548Z,13.75
2019-05-17T16:33:33.847Z,17.92
2019-05-17T16:36:16.290Z,11.03
2019-05-17T16:38:53.247Z,11.25
2019-05-17T16:41:49.420Z,12.23
2019-05-17T16:50:26.450Z,7.53
2019-05-17T16:53:05.402Z,7.95
2019-05-17T16:55:27.004Z,6.45
2019-05-17T16:59:21.888Z,6.78
2019-05-17T17:02:29.279Z,8.48
2019-05-17T17:05:52.377Z,6.67
2019-05-17T17:08:21.700Z,8.25
2019-05-17T17:10:51.059Z,15.20
2019-05-17T17:13:33.120Z,10.50
2019-05-17T17:16:03.978Z,14.25
2019-05-17T17:19:09.250Z,13.38
2019-05-17T17:25:14.652Z,6.00
2019-05-17T17:40:49.517Z,9.25
2019-05-17T17:43:58.626Z,7.17
2019-05-17T17:47:11.587Z,6.85
2019-05-17T17:50:15.734Z,8.10
2019-05-17T17:56:28.504Z,6.70
2019-05-17T17:59:13.019Z,5.87
2019-05-17T18:11:10.081Z,7.08
2019-05-17T18:19:55.912Z,6.60
2019-05-17T18:23:01.906Z,5.60
2019-05-17T18:26:10.258Z,6.17
2019-05-17T18:29:29.475Z,7.33
2019-05-17T18:58:50.432Z,11.63
2019-05-17T19:01:20.693Z,10.05
2019-05-17T19:03:53.417Z,8.53
2019-05-17T19:06:32.293Z,9.18
2019-05-17T19:09:15.107Z,8.63
2019-05-17T19:11:47.473Z,7.55
2019-05-17T19:14:21.772Z,9.25
2019-05-17T19:21:14.864Z,8.35
2019-05-17T19:23:56.344Z,7.70
2019-05-17T19:32:43.302Z,9.83
2019-05-17T19:35:25.402Z,9.05
2019-05-17T19:43:50.293Z,11.33
2019-05-17T20:00:26.360Z,8.48
2019-05-17T20:02:59.976Z,12.85
2019-05-17T20:05:29.747Z,12.15
2019-05-17T20:08:00.106Z,13.13
2019-05-17T20:11:46.933Z,11.20
2019-05-17T20:37:10.230Z,17.93
2019-05-17T20:39:41.705Z,12.13
2019-05-17T20:45:32.536Z,12.45
2019-05-17T20:47:52.516Z,12.10
2019-05-17T20:50:32.479Z,12.90
2019-05-17T20:53:18.819Z,12.00
2019-05-17T20:56:10.580Z,11.57
2019-05-17T20:58:46.437Z,11.35
2019-05-17T21:01:17.524Z,11.18
2019-05-17T21:04:08.185Z,12.30
2019-05-17T21:06:34.863Z,13.15
2019-05-17T21:09:05.073Z,13.50
2019-05-17T21:11:34.467Z,11.63
2019-05-17T21:14:04.683Z,12.00
2019-05-17T21:19:30.075Z,12.40
2019-05-17T21:22:04.062Z,12.58
2019-05-17T21:24:34.244Z,13.50
2019-05-17T21:27:03.874Z,12.82
2019-05-17T21:29:33.690Z,13.25
2019-05-17T21:32:03.143Z,15.05
2019-05-17T21:34:32.548Z,14.13
2019-05-17T21:37:02.003Z,13.20
2019-05-17T21:39:31.542Z,15.23
2019-05-17T21:42:01.065Z,15.03
2019-05-17T21:44:30.570Z,18.90
2019-05-17T21:47:04.593Z,12.82
2019-05-17T21:49:32.276Z,14.38
2019-05-17T21:52:02.184Z,17.17
2019-05-17T21:54:31.744Z,16.17
2019-05-17T21:57:01.970Z,13.98
2019-05-17T21:59:33.426Z,15.72
2019-05-17T22:02:07.551Z,14.83
2019-05-17T22:04:36.942Z,16.60
2019-05-17T22:07:06.579Z,14.58
2019-05-17T22:09:37.313Z,17.70
2019-05-17T22:12:09.947Z,15.63
2019-05-17T22:14:43.480Z,13.35
2019-05-17T22:17:15.055Z,15.85
2019-05-17T22:19:44.662Z,14.83
2019-05-17T22:22:13.986Z,15.98
2019-05-17T22:24:43.277Z,19.27
2019-05-17T22:27:12.706Z,15.08
2019-05-17T22:29:42.130Z,16.55
2019-05-17T22:32:11.461Z,16.85
2019-05-17T22:34:40.791Z,18.25
2019-05-17T22:37:11.326Z,20.37
2019-05-17T22:39:40.622Z,15.63
2019-05-17T22:42:09.955Z,15.18
2019-05-17T22:44:40.787Z,13.70
2019-05-17T22:47:10.217Z,18.98
2019-05-17T22:49:39.508Z,17.40
2019-05-17T22:52:08.890Z,15.08
2019-05-17T22:54:38.297Z,14.50
2019-05-17T22:57:07.994Z,18.85
2019-05-17T22:59:37.326Z,15.13
2019-05-17T23:02:08.642Z,26.68
2019-05-17T23:04:37.963Z,16.73
2019-05-17T23:07:07.237Z,18.52
2019-05-17T23:09:36.558Z,18.40
2019-05-17T23:12:08.203Z,14.68
2019-05-17T23:14:37.476Z,17.62
2019-05-17T23:17:06.855Z,13.53
2019-05-17T23:19:36.182Z,16.48
2019-05-17T23:22:05.785Z,17.17
2019-05-17T23:24:35.047Z,16.12
2019-05-17T23:27:04.518Z,15.95
2019-05-17T23:29:33.956Z,16.27
2019-05-17T23:32:03.472Z,17.92
2019-05-17T23:34:32.872Z,15.00
2019-05-17T23:37:02.397Z,15.75
2019-05-17T23:39:31.794Z,15.83
2019-05-17T23:42:01.104Z,16.48
2019-05-17T23:44:31.690Z,18.45
2019-05-17T23:47:06.960Z,15.48
2019-05-17T23:49:32.091Z,14.23
2019-05-17T23:52:01.501Z,16.27
2019-05-17T23:54:30.811Z,13.18
2019-05-17T23:57:00.207Z,15.90
2019-05-17T23:59:29.575Z,16.75
